Latest Weather Observations for Port Fairy

IDV60801

Issued at 8:32 pm EST Sunday 24 July 2016 (issued every 30 minutes, with the page automatically refreshed every 10 minutes)

About weather observations | Map of weather stations | Latest weather observations for VIC | Other Formats
Station Details ID: 090175 Name: PORT FAIRY AWS Lat: -38.39 Lon: 142.23 Height: 10.0 m
Data from the previous 72 hours. | See also: Recent months at Port Fairy
Date/Time
EST
Temp
°C
App
Temp
°C
Dew
Point
°C
Rel
Hum
%
Delta-T
°C
Wind Press
QNH
hPa
Press
MSL
hPa
Rain since
9am
mm
Dir  Spd
km/h
Gust
km/h
Spd
kts
Gust
kts
24/08:30pm 7.6 2.5 5.9 89 0.8 NNW 22 33 12 18 1001.7 1001.7 0.0
24/08:00pm 7.9 2.4 6.0 88 0.9 NNW 24 43 13 23 1001.5 1001.5 0.0
24/07:30pm 8.2 3.1 6.0 86 1.0 NNW 22 37 12 20 1001.4 1001.4 0.0
24/07:00pm 8.2 3.5 6.2 87 0.9 NNW 20 35 11 19 1001.0 1001.0 0.0
24/06:30pm 8.4 3.4 6.5 88 0.9 NNW 22 35 12 19 1000.6 1000.6 0.0
24/06:00pm 8.5 3.9 6.6 88 0.9 NNW 20 32 11 17 1000.4 1000.4 0.0
24/05:30pm 9.1 3.8 6.7 85 1.1 NNW 24 39 13 21 1000.5 1000.5 0.0
24/05:00pm 9.7 4.1 7.1 84 1.2 NNW 26 46 14 25 1000.4 1000.4 0.0
24/04:30pm 9.9 4.9 8.0 88 0.9 NNW 24 44 13 24 1000.5 1000.5 0.0
24/04:00pm 10.4 4.8 7.1 80 1.6 N 26 44 14 24 1000.4 1000.4 0.0
24/03:51pm 10.5 4.5 7.0 79 1.7 N 28 46 15 25 1000.4 1000.4 0.0
24/03:30pm 10.4 4.8 7.3 81 1.5 N 26 39 14 21 1000.6 1000.6 0.0
24/03:00pm 10.5 5.3 7.2 80 1.6 N 24 41 13 22 1001.1 1001.1 0.0
24/02:30pm 9.3 3.7 7.1 86 1.0 N 26 37 14 20 1001.7 1001.7 0.0
24/02:00pm 8.8 3.0 6.3 84 1.2 N 26 39 14 21 1002.1 1002.1 0.0
24/01:30pm 9.5 1.9 6.0 79 1.6 N 35 59 19 32 1003.2 1003.2 0.0
24/01:23pm 9.6 2.3 5.4 75 1.9 N 33 59 18 32 1003.2 1003.2 0.0
24/01:00pm 9.6 4.9 6.1 79 1.6 N 20 33 11 18 1003.7 1003.7 0.0
24/12:30pm 9.8 4.7 6.2 78 1.7 N 22 33 12 18 1004.4 1004.4 0.0
24/12:00pm 9.3 4.6 6.0 80 1.5 N 20 35 11 19 1005.0 1005.0 0.0
24/11:30am 9.4 3.5 5.9 79 1.6 N 26 39 14 21 1005.7 1005.7 0.0
24/11:00am 9.0 3.5 6.1 82 1.3 N 24 39 13 21 1006.3 1006.3 0.0
24/10:30am 8.4 3.7 6.2 86 1.0 N 20 32 11 17 1006.5 1006.5 0.0
24/10:00am 7.7 3.1 5.5 86 1.0 N 19 33 10 18 1006.7 1006.7 0.0
24/09:30am 7.5 2.8 6.0 90 0.7 N 20 28 11 15 1006.9 1006.9 0.0
24/09:00am 6.0 2.5 5.6 97 0.2 NNE 13 20 7 11 1007.3 1007.3 3.6
24/08:30am 5.1 1.5 5.0 99 0.0 N 13 19 7 10 1007.7 1007.7 3.6
24/08:00am 4.1 0.3 4.0 99 0.0 N 13 20 7 11 1007.9 1007.9 3.6
24/07:30am 3.5 0.0 3.4 99 0.0 N 11 17 6 9 1007.9 1007.9 3.6
24/07:00am 3.4 0.2 3.3 99 0.0 N 9 15 5 8 1008.1 1008.1 3.6
24/06:30am 4.0 0.2 3.9 99 0.0 N 13 20 7 11 1008.1 1008.1 3.6
24/06:00am 4.1 0.3 4.0 99 0.0 N 13 19 7 10 1008.2 1008.2 3.6
24/05:30am 3.5 0.0 3.4 99 0.0 N 11 13 6 7 1008.5 1008.5 3.6
24/05:00am 3.7 0.2 3.6 99 0.0 N 11 13 6 7 1008.7 1008.7 3.6
24/04:30am 4.0 1.0 3.9 99 0.0 N 9 13 5 7 1009.2 1009.2 3.4
24/04:00am 4.3 0.9 4.2 99 0.0 N 11 17 6 9 1009.5 1009.5 3.4
24/03:30am 4.7 0.6 4.6 99 0.0 N 15 20 8 11 1010.1 1010.1 3.4
24/03:00am 4.8 0.8 4.7 99 0.0 NNW 15 20 8 11 1010.4 1010.4 3.4
24/02:30am 4.7 1.0 4.6 99 0.0 NNW 13 20 7 11 1010.9 1010.9 3.4
24/02:00am 4.6 0.9 4.5 99 0.0 NNW 13 20 7 11 1010.8 1010.8 3.4
24/01:30am 4.7 1.0 4.7 100 0.0 NNW 13 19 7 10 1010.8 1010.8 3.4
24/01:00am 4.8 0.8 4.8 100 0.0 NNW 15 22 8 12 1011.0 1011.0 3.4
24/12:30am 4.6 1.3 4.6 100 0.0 NNW 11 15 6 8 1011.2 1011.2 3.4
24/12:00am 4.8 1.5 4.8 100 0.0 NNW 11 17 6 9 1011.4 1011.4 3.4
 
Date/Time
EST
Temp
°C
App
Temp
°C
Dew
Point
°C
Rel
Hum
%
Delta-T
°C
Wind Press
QNH
hPa
Press
MSL
hPa
Rain since
9am
mm
Dir  Spd
km/h
Gust
km/h
Spd
kts
Gust
kts
23/11:30pm 4.8 1.2 4.8 100 0.0 NNW 13 20 7 11 1011.5 1011.5 3.4
23/11:00pm 4.8 1.5 4.8 100 0.0 NNW 11 15 6 8 1011.9 1011.9 3.4
23/10:30pm 5.0 2.1 4.9 99 0.0 NNW 9 15 5 8 1012.0 1012.0 3.4
23/10:00pm 5.7 3.0 5.7 100 0.0 NW 9 17 5 9 1012.2 1012.2 3.4
23/09:30pm 5.4 2.2 5.3 99 0.0 NNW 11 17 6 9 1012.2 1012.2 3.4
23/09:00pm 6.2 2.5 6.1 99 0.0 NNW 15 24 8 13 1012.1 1012.1 3.4
23/08:30pm 6.5 4.0 6.4 99 0.0 NW 9 17 5 9 1012.0 1012.0 2.4
23/08:00pm 6.7 3.8 6.6 99 0.0 NNW 11 20 6 11 1011.9 1011.9 2.4
23/07:30pm 7.3 3.4 5.4 88 0.8 NNW 15 22 8 12 1011.8 1011.8 2.4
23/07:00pm 8.9 3.8 6.2 83 1.2 WSW 22 30 12 16 1011.2 1011.2 2.4
23/06:30pm 8.5 2.5 7.1 91 0.7 SW 28 39 15 21 1011.0 1011.0 2.4
23/06:08pm 8.5 4.9 8.4 99 0.0 W 17 46 9 25 1010.8 1010.8 2.4
23/06:00pm 6.6 3.9 5.4 92 0.5 WNW 9 17 5 9 1010.6 1010.6 2.2
23/05:39pm 6.9 0.5 5.2 89 0.7 W 28 46 15 25 1010.7 1010.7 2.2
23/05:30pm 8.0 1.0 6.0 87 0.9 WSW 32 46 17 25 1010.7 1010.7 2.0
23/05:00pm 8.9 3.5 6.5 85 1.1 W 24 35 13 19 1010.1 1010.1 2.0
23/04:32pm 8.4 1.9 6.5 88 0.9 WSW 30 50 16 27 1009.9 1009.9 2.0
23/04:30pm 8.2 1.2 6.0 86 1.0 WSW 32 50 17 27 1009.9 1009.9 2.0
23/04:00pm 9.8 2.3 4.6 70 2.3 W 33 50 18 27 1009.6 1009.6 1.6
23/03:53pm 9.9 2.2 5.3 73 2.1 W 35 54 19 29 1009.5 1009.5 1.6
23/03:30pm 9.7 2.2 6.1 78 1.7 WSW 35 48 19 26 1009.2 1009.2 1.6
23/03:00pm 10.6 1.8 7.3 80 1.6 WSW 43 56 23 30 1009.0 1009.0 1.6
23/02:30pm 9.4 1.6 6.7 83 1.3 W 37 57 20 31 1008.6 1008.6 1.6
23/02:07pm 10.6 0.9 5.8 72 2.2 WSW 46 70 25 38 1008.2 1008.2 1.6
23/02:00pm 10.8 0.9 4.9 67 2.7 WSW 46 63 25 34 1008.1 1008.1 1.6
23/01:30pm 10.2 0.8 5.6 73 2.1 WSW 44 61 24 33 1008.0 1008.0 1.6
23/01:10pm 8.6 -0.9 6.9 89 0.8 WSW 46 65 25 35 1008.1 1008.1 1.4
23/01:03pm 10.0 2.5 6.5 79 1.6 WSW 35 54 19 29 1007.9 1007.9 1.4
23/01:00pm 10.5 3.4 6.5 76 1.9 W 33 46 18 25 1007.8 1007.8 1.4
23/12:31pm 9.1 -1.1 5.3 77 1.7 WSW 48 72 26 39 1007.8 1007.8 1.4
23/12:30pm 9.1 -0.6 5.7 79 1.5 WSW 46 65 25 35 1007.8 1007.8 1.4
23/12:01pm 8.8 -0.8 6.3 84 1.1 WSW 46 65 25 35 1008.1 1008.1 1.2
23/12:00pm 8.7 -1.3 6.2 84 1.1 WSW 48 65 26 35 1008.1 1008.1 1.2
23/11:43am 9.3 2.0 7.4 88 0.9 SW 35 56 19 30 1007.9 1007.9 1.2
23/11:30am 8.8 1.3 8.0 95 0.4 WSW 37 52 20 28 1007.9 1007.9 1.2
23/11:00am 9.7 0.2 4.7 71 2.2 WSW 44 65 24 35 1007.7 1007.7 0.4
23/10:30am 8.9 -0.1 4.7 75 1.9 WSW 41 57 22 31 1007.2 1007.2 0.4
23/10:00am 9.1 -0.4 5.1 76 1.8 WSW 44 57 24 31 1006.8 1006.8 0.2
23/09:31am 8.2 -0.9 5.8 85 1.1 WSW 43 63 23 34 1006.6 1006.6 0.0
23/09:30am 8.6 -0.1 6.1 84 1.1 WSW 41 57 22 31 1006.4 1006.4 0.0
23/09:08am 7.4 -4.0 4.7 83 1.2 SW 54 78 29 42 1006.4 1006.4 0.0
23/09:00am 8.0 -4.4 4.9 81 1.4 SW 59 85 32 46 1006.3 1006.3 12.6
23/08:56am 8.2 -2.7 5.5 83 1.2 SW 52 85 28 46 1006.1 1006.1 12.6
23/08:49am 8.7 -0.7 4.5 75 1.9 SW 43 65 23 35 1005.7 1005.7 12.6
23/08:46am 8.4 -1.0 4.4 76 1.8 SW 43 61 23 33 1005.7 1005.7 12.6
23/08:30am 7.9 -3.9 4.7 80 1.4 SW 56 80 30 43 1005.6 1005.6 12.6
23/08:26am 8.8 -1.6 4.4 74 1.9 WSW 48 76 26 41 1005.3 1005.3 12.6
23/08:24am 8.6 -1.9 3.8 72 2.1 WSW 48 76 26 41 1005.3 1005.3 12.6
23/08:00am 8.7 0.8 4.5 75 1.9 WSW 35 56 19 30 1004.7 1004.7 12.6
23/07:43am 7.7 -1.9 3.6 75 1.8 WSW 43 61 23 33 1004.8 1004.8 12.6
23/07:37am 8.2 -2.2 4.0 75 1.8 WSW 48 61 26 33 1004.8 1004.8 12.6
23/07:30am 8.6 -2.3 3.4 70 2.2 SW 50 70 27 38 1004.6 1004.6 12.6
23/07:14am 9.5 -1.3 2.1 60 3.1 WSW 48 72 26 39 1003.9 1003.9 12.6
23/07:00am 9.4 -0.9 2.5 62 2.9 SW 46 63 25 34 1003.6 1003.6 12.6
23/06:37am 9.2 -0.7 2.5 63 2.8 WSW 44 65 24 35 1003.2 1003.2 12.6
23/06:30am 8.6 -1.3 3.0 68 2.4 WSW 44 67 24 36 1003.1 1003.1 12.6
23/06:23am 7.3 -4.7 1.6 67 2.3 WSW 54 76 29 41 1002.9 1002.9 12.6
23/06:07am 9.3 -2.8 3.1 65 2.7 WSW 56 78 30 42 1002.7 1002.7 12.2
23/06:00am 9.8 -2.5 1.9 58 3.3 WSW 56 70 30 38 1002.4 1002.4 12.2
23/05:30am 9.4 -2.6 1.6 58 3.2 SW 54 80 29 43 1001.7 1001.7 12.2
23/05:00am 9.8 -2.6 2.6 61 3.1 WSW 57 78 31 42 1000.8 1000.8 12.2
23/04:30am 9.7 -1.3 5.1 73 2.1 WSW 52 72 28 39 999.9 999.9 12.2
23/04:05am 9.5 -0.8 6.4 81 1.4 SW 50 72 27 39 999.4 999.4 12.2
23/04:00am 9.2 -1.1 6.3 82 1.3 SW 50 63 27 34 999.4 999.4 12.2
23/03:30am 9.3 -1.4 6.6 83 1.3 SW 52 72 28 39 998.6 998.6 12.0
23/03:00am 7.5 -1.8 7.4 99 0.0 SW 46 80 25 43 998.0 998.0 12.0
23/02:31am 10.1 -0.4 7.3 83 1.3 WSW 52 70 28 38 997.3 997.3 11.2
23/02:30am 10.2 -0.8 6.7 79 1.6 WSW 54 70 29 38 997.3 997.3 11.2
23/02:00am 10.1 1.2 6.8 80 1.6 WSW 43 70 23 38 996.6 996.6 11.0
23/01:33am 9.7 2.8 7.1 84 1.2 SW 33 54 18 29 995.8 995.8 11.0
23/01:30am 9.4 2.5 7.3 87 1.0 SW 33 46 18 25 995.7 995.7 11.0
23/01:21am 9.5 0.9 8.3 92 0.6 WSW 43 63 23 34 995.7 995.7 11.0
23/01:11am 9.5 3.2 7.4 87 1.0 W 30 48 16 26 995.3 995.3 11.0
23/01:00am 9.8 4.0 7.9 88 0.9 WSW 28 37 15 20 995.0 995.0 11.0
23/12:30am 9.3 1.9 6.9 85 1.1 WSW 35 46 19 25 994.9 994.9 11.0
23/12:00am 8.3 0.1 8.2 99 0.0 SW 41 52 22 28 994.0 994.0 11.0
 
Date/Time
EST
Temp
°C
App
Temp
°C
Dew
Point
°C
Rel
Hum
%
Delta-T
°C
Wind Press
QNH
hPa
Press
MSL
hPa
Rain since
9am
mm
Dir  Spd
km/h
Gust
km/h
Spd
kts
Gust
kts
22/11:30pm 8.1 -0.5 8.0 99 0.0 SW 43 56 23 30 993.4 993.4 10.6
22/11:05pm 9.1 -0.2 9.1 100 0.0 WSW 48 83 26 45 991.5 991.5 10.2
22/11:00pm 8.7 1.7 8.6 99 0.0 WNW 35 69 19 37 990.8 990.8 10.2
22/10:58pm 8.5 2.5 8.5 100 0.0 NW 30 69 16 37 990.5 990.5 10.2
22/10:32pm 8.7 3.1 8.6 99 0.0 NNW 28 46 15 25 990.6 990.6 10.0
22/10:30pm 8.7 3.4 8.6 99 0.0 NNW 26 46 14 25 990.7 990.7 10.0
22/10:00pm 8.7 4.8 8.7 100 0.0 NNW 19 32 10 17 991.3 991.3 10.0
22/09:30pm 8.8 6.4 8.8 100 0.0 NNW 11 24 6 13 991.9 991.9 10.0
22/09:00pm 8.8 7.4 8.8 100 0.0 NNW 6 9 3 5 992.4 992.4 10.0
22/08:30pm 8.9 6.2 8.9 100 0.0 W 13 20 7 11 993.1 993.1 10.0
22/08:00pm 8.3 6.6 8.3 100 0.0 W 7 9 4 5 993.2 993.2 9.6
22/07:30pm 10.0 8.7 10.0 100 0.0 NNW 7 13 4 7 993.6 993.6 5.6
22/07:00pm 10.1 8.5 10.1 100 0.0 NNW 9 13 5 7 993.5 993.5 5.4
22/06:30pm 10.3 9.1 10.3 100 0.0 NW 7 9 4 5 993.8 993.8 5.2
22/06:00pm 10.4 8.4 10.2 99 0.1 WSW 11 20 6 11 994.0 994.0 4.2
22/05:30pm 11.2 10.2 11.0 99 0.1 NNW 7 13 4 7 993.9 993.9 3.0
22/05:00pm 12.2 8.0 8.3 77 1.9 W 20 32 11 17 994.0 994.0 2.8
22/04:30pm 12.6 7.7 8.5 76 2.0 W 24 33 13 18 994.2 994.2 2.8
22/04:00pm 12.6 7.4 8.9 78 1.9 W 26 35 14 19 994.3 994.3 2.8
22/03:30pm 12.2 7.2 9.6 84 1.3 W 26 39 14 21 994.4 994.4 2.8
22/03:00pm 13.0 6.8 9.4 79 1.8 W 32 44 17 24 994.1 994.1 2.8
22/02:30pm 13.4 7.9 10.6 83 1.5 W 30 44 16 24 994.3 994.3 2.8
22/02:00pm 13.4 7.4 10.8 84 1.4 W 33 52 18 28 994.3 994.3 2.8
22/01:31pm 13.2 7.9 11.1 87 1.1 W 30 48 16 26 994.5 994.5 2.8
22/01:30pm 13.3 7.6 11.2 87 1.1 W 32 50 17 27 994.5 994.5 2.8
22/01:00pm 14.4 8.4 10.8 79 1.9 W 33 54 18 29 994.5 994.5 2.8
22/12:30pm 14.7 8.7 10.9 78 2.0 W 33 54 18 29 994.7 994.7 2.8
22/12:13pm 13.8 8.6 11.7 87 1.1 W 30 57 16 31 994.6 994.6 2.8
22/12:00pm 12.9 9.4 12.3 96 0.3 WNW 22 43 12 23 994.9 994.9 2.8
22/11:30am 12.4 8.9 12.1 98 0.2 NW 22 44 12 24 994.9 994.9 2.8
22/11:00am 11.3 7.1 11.1 99 0.1 WNW 24 46 13 25 995.0 995.0 2.8
22/10:30am 11.9 5.8 11.7 99 0.1 WNW 35 76 19 41 995.0 995.0 2.6
22/10:27am 11.9 6.8 11.9 100 0.0 WNW 30 76 16 41 995.0 995.0 2.4
22/10:00am 12.4 7.6 11.6 95 0.4 NW 28 56 15 30 994.7 994.7 1.2
22/09:59am 12.5 7.7 11.7 95 0.4 NW 28 52 15 28 994.6 994.6 1.0
22/09:30am 14.2 9.9 11.9 86 1.2 NW 26 43 14 23 994.5 994.5 0.0
22/09:00am 13.4 10.6 13.2 99 0.1 NW 20 35 11 19 994.9 994.9 3.8
22/08:30am 13.3 9.2 12.8 97 0.3 NNW 26 35 14 19 995.1 995.1 3.4
22/08:00am 12.9 9.9 12.4 97 0.3 NNW 20 35 11 19 995.0 995.0 3.4
22/07:30am 12.9 10.1 12.7 99 0.1 NNW 19 35 10 19 995.1 995.1 3.4
22/07:00am 13.1 10.2 12.8 98 0.2 NNW 20 32 11 17 995.4 995.4 3.4
22/06:30am 13.2 10.5 13.0 99 0.1 NNW 19 33 10 18 995.7 995.7 3.4
22/06:00am 13.3 10.7 13.1 99 0.1 NNW 19 28 10 15 996.0 996.0 3.4
22/05:30am 13.5 11.7 13.3 99 0.1 NW 15 26 8 14 995.9 995.9 3.4
22/05:00am 13.5 11.7 13.3 99 0.1 NW 15 24 8 13 996.6 996.6 3.4
22/04:30am 13.9 11.8 13.7 99 0.1 NW 17 28 9 15 996.5 996.5 3.4
22/04:00am 14.2 13.1 14.2 100 0.0 NW 13 20 7 11 997.1 997.1 3.4
22/03:30am 14.5 12.3 14.5 100 0.0 NW 19 32 10 17 997.5 997.5 3.4
22/03:00am 14.7 12.6 14.7 100 0.0 NW 19 30 10 16 998.0 998.0 3.2
22/02:30am 14.8 12.6 14.8 100 0.0 NW 20 33 11 18 998.3 998.3 3.2
22/02:01am 15.1 10.7 15.1 100 0.0 NNW 32 52 17 28 998.6 998.6 3.0
22/02:00am 15.1 10.5 15.1 100 0.0 NNW 33 52 18 28 998.5 998.5 3.0
22/01:30am 16.1 12.2 15.6 97 0.3 NNW 30 48 16 26 998.3 998.3 1.4
22/01:12am 16.1 12.6 15.6 97 0.3 N 28 46 15 25 997.9 997.9 1.4
22/01:00am 15.9 12.5 15.7 99 0.1 NNW 28 46 15 25 998.2 998.2 1.4
22/12:30am 15.8 11.9 15.6 99 0.1 NNW 30 54 16 29 999.6 999.6 1.2
22/12:00am 16.7 11.9 14.0 84 1.5 N 32 50 17 27 998.5 998.5 0.0
 
Date/Time
EST
Temp
°C
App
Temp
°C
Dew
Point
°C
Rel
Hum
%
Delta-T
°C
Wind Press
QNH
hPa
Press
MSL
hPa
Rain since
9am
mm
Dir  Spd
km/h
Gust
km/h
Spd
kts
Gust
kts
21/11:30pm 16.4 12.2 13.5 83 1.6 N 28 52 15 28 999.1 999.1 0.0
21/11:06pm 16.4 12.2 13.5 83 1.6 N 28 46 15 25 999.8 999.8 0.0
21/11:00pm 16.4 12.2 13.5 83 1.6 N 28 41 15 22 1000.1 1000.1 0.0
21/10:30pm 16.3 12.7 14.1 87 1.2 N 26 44 14 24 1001.2 1001.2 0.0
21/10:00pm 16.0 12.4 14.2 89 1.0 N 26 41 14 22 1002.0 1002.0 0.0
21/09:30pm 15.7 12.2 14.6 93 0.6 N 26 35 14 19 1002.8 1002.8 0.0
21/09:00pm 15.2 11.9 14.1 93 0.6 N 24 39 13 21 1002.8 1002.8 0.0

Other Formats:

Comma delimited format used in spreadsheet applications
http://www.bom.gov.au/fwo/IDV60801/IDV60801.94830.axf

JavaScript Object Notation format (JSON) in row-major order
http://www.bom.gov.au/fwo/IDV60801/IDV60801.94830.json